sensor_id;sensor_type;location;lat;lon;timestamp;P1;durP1;ratioP1;P2;durP2;ratioP2
43986;SDS011;29650;47.378;8.300;2023-04-06T00:00:17;8.15;;;4.07;;
43986;SDS011;29650;47.378;8.300;2023-04-06T00:02:46;7.90;;;3.97;;
43986;SDS011;29650;47.378;8.300;2023-04-06T00:05:13;10.32;;;4.13;;
43986;SDS011;29650;47.378;8.300;2023-04-06T00:07:40;8.32;;;4.60;;
43986;SDS011;29650;47.378;8.300;2023-04-06T00:10:08;8.35;;;3.88;;
43986;SDS011;29650;47.378;8.300;2023-04-06T00:12:35;10.88;;;4.80;;
43986;SDS011;29650;47.378;8.300;2023-04-06T00:15:02;7.68;;;4.85;;
43986;SDS011;29650;47.378;8.300;2023-04-06T00:17:32;7.47;;;3.97;;
43986;SDS011;29650;47.378;8.300;2023-04-06T00:19:59;6.43;;;4.30;;
43986;SDS011;29650;47.378;8.300;2023-04-06T00:22:26;9.35;;;4.55;;
43986;SDS011;29650;47.378;8.300;2023-04-06T00:24:53;6.43;;;4.22;;
43986;SDS011;29650;47.378;8.300;2023-04-06T00:27:19;8.95;;;4.78;;
43986;SDS011;29650;47.378;8.300;2023-04-06T00:29:46;9.05;;;5.07;;
43986;SDS011;29650;47.378;8.300;2023-04-06T00:32:13;7.78;;;4.63;;
43986;SDS011;29650;47.378;8.300;2023-04-06T00:34:42;7.40;;;4.35;;
43986;SDS011;29650;47.378;8.300;2023-04-06T00:37:10;9.52;;;4.53;;
43986;SDS011;29650;47.378;8.300;2023-04-06T00:39:37;6.25;;;4.47;;
43986;SDS011;29650;47.378;8.300;2023-04-06T00:42:07;5.82;;;3.67;;
43986;SDS011;29650;47.378;8.300;2023-04-06T00:44:37;9.38;;;4.97;;
43986;SDS011;29650;47.378;8.300;2023-04-06T00:47:04;9.38;;;4.03;;
43986;SDS011;29650;47.378;8.300;2023-04-06T00:49:32;5.80;;;3.90;;
43986;SDS011;29650;47.378;8.300;2023-04-06T00:52:01;10.15;;;4.15;;
43986;SDS011;29650;47.378;8.300;2023-04-06T00:54:28;5.90;;;3.97;;
43986;SDS011;29650;47.378;8.300;2023-04-06T00:56:56;6.50;;;4.33;;
43986;SDS011;29650;47.378;8.300;2023-04-06T00:59:23;8.23;;;4.38;;
43986;SDS011;29650;47.378;8.300;2023-04-06T01:01:51;7.68;;;4.63;;
43986;SDS011;29650;47.378;8.300;2023-04-06T01:04:18;8.45;;;5.22;;
43986;SDS011;29650;47.378;8.300;2023-04-06T01:06:45;10.55;;;5.57;;
43986;SDS011;29650;47.378;8.300;2023-04-06T01:09:13;6.97;;;4.72;;
43986;SDS011;29650;47.378;8.300;2023-04-06T01:11:40;6.63;;;4.53;;
43986;SDS011;29650;47.378;8.300;2023-04-06T01:14:07;7.90;;;4.47;;
43986;SDS011;29650;47.378;8.300;2023-04-06T01:16:34;8.23;;;4.88;;
43986;SDS011;29650;47.378;8.300;2023-04-06T01:19:07;7.32;;;4.45;;
43986;SDS011;29650;47.378;8.300;2023-04-06T01:21:35;9.45;;;4.70;;
43986;SDS011;29650;47.378;8.300;2023-04-06T01:24:04;8.30;;;4.75;;
43986;SDS011;29650;47.378;8.300;2023-04-06T01:26:32;8.23;;;4.90;;
43986;SDS011;29650;47.378;8.300;2023-04-06T01:28:59;9.98;;;5.05;;
43986;SDS011;29650;47.378;8.300;2023-04-06T01:31:27;5.97;;;4.15;;
43986;SDS011;29650;47.378;8.300;2023-04-06T01:33:54;7.15;;;4.78;;
43986;SDS011;29650;47.378;8.300;2023-04-06T01:36:21;9.95;;;5.30;;
43986;SDS011;29650;47.378;8.300;2023-04-06T01:38:48;7.00;;;4.55;;
43986;SDS011;29650;47.378;8.300;2023-04-06T01:41:17;12.02;;;5.20;;
43986;SDS011;29650;47.378;8.300;2023-04-06T01:43:44;5.60;;;4.28;;
43986;SDS011;29650;47.378;8.300;2023-04-06T01:46:11;8.80;;;5.15;;
43986;SDS011;29650;47.378;8.300;2023-04-06T01:48:38;8.13;;;3.75;;
43986;SDS011;29650;47.378;8.300;2023-04-06T01:51:05;9.75;;;5.00;;
43986;SDS011;29650;47.378;8.300;2023-04-06T01:53:32;9.00;;;5.13;;
43986;SDS011;29650;47.378;8.300;2023-04-06T01:55:59;7.53;;;4.65;;
43986;SDS011;29650;47.378;8.300;2023-04-06T01:58:27;10.15;;;5.07;;
43986;SDS011;29650;47.378;8.300;2023-04-06T02:00:55;8.30;;;4.63;;
43986;SDS011;29650;47.378;8.300;2023-04-06T02:03:21;7.15;;;4.90;;
43986;SDS011;29650;47.378;8.300;2023-04-06T02:05:48;8.32;;;4.85;;
43986;SDS011;29650;47.378;8.300;2023-04-06T02:08:15;8.00;;;4.35;;
43986;SDS011;29650;47.378;8.300;2023-04-06T02:10:42;10.07;;;5.07;;
43986;SDS011;29650;47.378;8.300;2023-04-06T02:13:09;8.48;;;5.18;;
43986;SDS011;29650;47.378;8.300;2023-04-06T02:15:38;8.00;;;4.88;;
43986;SDS011;29650;47.378;8.300;2023-04-06T02:18:05;8.70;;;4.67;;
43986;SDS011;29650;47.378;8.300;2023-04-06T02:20:32;11.30;;;4.47;;
43986;SDS011;29650;47.378;8.300;2023-04-06T02:22:59;7.47;;;4.18;;
43986;SDS011;29650;47.378;8.300;2023-04-06T02:25:26;7.97;;;4.47;;
43986;SDS011;29650;47.378;8.300;2023-04-06T02:27:53;7.22;;;4.07;;
43986;SDS011;29650;47.378;8.300;2023-04-06T02:30:21;8.48;;;5.30;;
43986;SDS011;29650;47.378;8.300;2023-04-06T02:32:49;6.28;;;4.20;;
43986;SDS011;29650;47.378;8.300;2023-04-06T02:35:16;8.57;;;3.97;;
43986;SDS011;29650;47.378;8.300;2023-04-06T02:37:43;8.18;;;5.00;;
43986;SDS011;29650;47.378;8.300;2023-04-06T02:40:10;9.38;;;5.68;;
43986;SDS011;29650;47.378;8.300;2023-04-06T02:42:37;7.47;;;4.78;;
43986;SDS011;29650;47.378;8.300;2023-04-06T02:45:04;9.35;;;4.95;;
43986;SDS011;29650;47.378;8.300;2023-04-06T02:47:32;11.18;;;5.32;;
43986;SDS011;29650;47.378;8.300;2023-04-06T02:50:01;9.85;;;4.95;;
43986;SDS011;29650;47.378;8.300;2023-04-06T02:52:28;7.93;;;4.60;;
43986;SDS011;29650;47.378;8.300;2023-04-06T02:54:55;9.45;;;5.60;;
43986;SDS011;29650;47.378;8.300;2023-04-06T02:57:22;9.50;;;5.38;;
43986;SDS011;29650;47.378;8.300;2023-04-06T02:59:49;7.70;;;4.28;;
43986;SDS011;29650;47.378;8.300;2023-04-06T03:02:16;8.10;;;4.82;;
43986;SDS011;29650;47.378;8.300;2023-04-06T03:04:43;9.77;;;5.00;;
43986;SDS011;29650;47.378;8.300;2023-04-06T03:07:12;11.45;;;4.55;;
43986;SDS011;29650;47.378;8.300;2023-04-06T03:09:39;10.13;;;4.97;;
43986;SDS011;29650;47.378;8.300;2023-04-06T03:12:06;9.60;;;5.38;;
43986;SDS011;29650;47.378;8.300;2023-04-06T03:14:33;9.30;;;5.28;;
43986;SDS011;29650;47.378;8.300;2023-04-06T03:17:00;11.25;;;5.00;;
43986;SDS011;29650;47.378;8.300;2023-04-06T03:19:27;9.00;;;4.53;;
43986;SDS011;29650;47.378;8.300;2023-04-06T03:21:54;9.73;;;4.38;;
43986;SDS011;29650;47.378;8.300;2023-04-06T03:24:22;9.23;;;5.07;;
43986;SDS011;29650;47.378;8.300;2023-04-06T03:26:49;6.50;;;3.87;;
43986;SDS011;29650;47.378;8.300;2023-04-06T03:29:16;7.05;;;4.18;;
43986;SDS011;29650;47.378;8.300;2023-04-06T03:31:43;9.07;;;4.15;;
43986;SDS011;29650;47.378;8.300;2023-04-06T03:34:10;6.38;;;4.28;;
43986;SDS011;29650;47.378;8.300;2023-04-06T03:36:37;7.88;;;5.35;;
43986;SDS011;29650;47.378;8.300;2023-04-06T03:39:04;12.18;;;6.10;;
43986;SDS011;29650;47.378;8.300;2023-04-06T03:41:32;25.85;;;11.40;;
43986;SDS011;29650;47.378;8.300;2023-04-06T03:44:00;43.45;;;15.10;;
43986;SDS011;29650;47.378;8.300;2023-04-06T03:46:27;88.05;;;30.55;;
43986;SDS011;29650;47.378;8.300;2023-04-06T03:48:54;180.73;;;58.55;;
43986;SDS011;29650;47.378;8.300;2023-04-06T03:51:21;207.50;;;65.95;;
43986;SDS011;29650;47.378;8.300;2023-04-06T03:53:48;90.97;;;32.17;;
43986;SDS011;29650;47.378;8.300;2023-04-06T03:56:15;73.18;;;24.42;;
43986;SDS011;29650;47.378;8.300;2023-04-06T03:58:43;50.88;;;18.45;;
43986;SDS011;29650;47.378;8.300;2023-04-06T04:01:14;61.88;;;20.85;;
43986;SDS011;29650;47.378;8.300;2023-04-06T04:03:44;39.28;;;14.77;;
43986;SDS011;29650;47.378;8.300;2023-04-06T04:06:11;40.03;;;15.82;;
43986;SDS011;29650;47.378;8.300;2023-04-06T04:08:38;24.10;;;10.90;;
43986;SDS011;29650;47.378;8.300;2023-04-06T04:11:05;43.58;;;15.82;;
43986;SDS011;29650;47.378;8.300;2023-04-06T04:13:32;43.55;;;17.25;;
43986;SDS011;29650;47.378;8.300;2023-04-06T04:16:00;11.70;;;5.53;;
43986;SDS011;29650;47.378;8.300;2023-04-06T04:18:27;16.50;;;7.13;;
43986;SDS011;29650;47.378;8.300;2023-04-06T04:20:54;13.30;;;6.22;;
43986;SDS011;29650;47.378;8.300;2023-04-06T04:23:21;18.27;;;5.18;;
43986;SDS011;29650;47.378;8.300;2023-04-06T04:25:48;8.73;;;5.60;;
43986;SDS011;29650;47.378;8.300;2023-04-06T04:28:16;14.13;;;4.35;;
43986;SDS011;29650;47.378;8.300;2023-04-06T04:30:43;17.00;;;8.00;;
43986;SDS011;29650;47.378;8.300;2023-04-06T04:33:11;21.40;;;9.85;;
43986;SDS011;29650;47.378;8.300;2023-04-06T04:35:38;25.20;;;11.27;;
43986;SDS011;29650;47.378;8.300;2023-04-06T04:38:05;11.98;;;7.68;;
43986;SDS011;29650;47.378;8.300;2023-04-06T04:40:32;10.57;;;6.55;;
43986;SDS011;29650;47.378;8.300;2023-04-06T04:42:59;9.15;;;6.15;;
43986;SDS011;29650;47.378;8.300;2023-04-06T04:45:26;8.98;;;6.05;;
43986;SDS011;29650;47.378;8.300;2023-04-06T04:47:53;9.98;;;6.57;;
43986;SDS011;29650;47.378;8.300;2023-04-06T04:50:21;10.98;;;6.03;;
43986;SDS011;29650;47.378;8.300;2023-04-06T04:52:48;13.37;;;5.33;;
43986;SDS011;29650;47.378;8.300;2023-04-06T04:55:15;8.20;;;4.38;;
43986;SDS011;29650;47.378;8.300;2023-04-06T04:57:43;9.40;;;5.22;;
43986;SDS011;29650;47.378;8.300;2023-04-06T05:00:11;7.70;;;5.07;;
43986;SDS011;29650;47.378;8.300;2023-04-06T05:02:38;9.32;;;5.75;;
43986;SDS011;29650;47.378;8.300;2023-04-06T05:05:05;8.90;;;4.72;;
43986;SDS011;29650;47.378;8.300;2023-04-06T05:07:34;10.88;;;5.70;;
43986;SDS011;29650;47.378;8.300;2023-04-06T05:10:01;8.77;;;5.17;;
43986;SDS011;29650;47.378;8.300;2023-04-06T05:12:28;7.32;;;5.05;;
43986;SDS011;29650;47.378;8.300;2023-04-06T05:14:55;12.25;;;5.38;;
43986;SDS011;29650;47.378;8.300;2023-04-06T05:17:22;11.38;;;4.82;;
43986;SDS011;29650;47.378;8.300;2023-04-06T05:19:50;11.30;;;5.30;;
43986;SDS011;29650;47.378;8.300;2023-04-06T05:22:17;9.13;;;5.25;;
43986;SDS011;29650;47.378;8.300;2023-04-06T05:24:46;11.65;;;5.57;;
43986;SDS011;29650;47.378;8.300;2023-04-06T05:27:13;11.00;;;6.03;;
43986;SDS011;29650;47.378;8.300;2023-04-06T05:29:40;9.82;;;5.57;;
43986;SDS011;29650;47.378;8.300;2023-04-06T05:32:07;9.15;;;5.47;;
43986;SDS011;29650;47.378;8.300;2023-04-06T05:34:35;9.07;;;5.30;;
43986;SDS011;29650;47.378;8.300;2023-04-06T05:37:02;10.40;;;6.30;;
43986;SDS011;29650;47.378;8.300;2023-04-06T05:39:29;10.55;;;5.72;;
43986;SDS011;29650;47.378;8.300;2023-04-06T05:41:58;11.20;;;5.75;;
43986;SDS011;29650;47.378;8.300;2023-04-06T05:44:27;10.38;;;5.50;;
43986;SDS011;29650;47.378;8.300;2023-04-06T05:46:54;10.63;;;6.03;;
43986;SDS011;29650;47.378;8.300;2023-04-06T05:49:21;8.70;;;5.47;;
43986;SDS011;29650;47.378;8.300;2023-04-06T05:51:48;9.82;;;5.72;;
43986;SDS011;29650;47.378;8.300;2023-04-06T05:54:18;9.90;;;5.32;;
43986;SDS011;29650;47.378;8.300;2023-04-06T05:56:46;10.18;;;5.65;;
43986;SDS011;29650;47.378;8.300;2023-04-06T05:59:14;15.77;;;6.75;;
43986;SDS011;29650;47.378;8.300;2023-04-06T06:01:41;10.82;;;5.80;;
43986;SDS011;29650;47.378;8.300;2023-04-06T06:04:08;10.90;;;5.97;;
43986;SDS011;29650;47.378;8.300;2023-04-06T06:06:35;11.38;;;5.90;;
43986;SDS011;29650;47.378;8.300;2023-04-06T06:09:02;10.20;;;5.45;;
43986;SDS011;29650;47.378;8.300;2023-04-06T06:11:29;12.90;;;5.82;;
43986;SDS011;29650;47.378;8.300;2023-04-06T06:13:58;15.75;;;5.45;;
43986;SDS011;29650;47.378;8.300;2023-04-06T06:16:26;8.10;;;4.82;;
43986;SDS011;29650;47.378;8.300;2023-04-06T06:18:53;8.63;;;5.23;;
43986;SDS011;29650;47.378;8.300;2023-04-06T06:21:20;11.43;;;6.35;;
43986;SDS011;29650;47.378;8.300;2023-04-06T06:23:47;11.23;;;5.97;;
43986;SDS011;29650;47.378;8.300;2023-04-06T06:26:15;8.50;;;5.22;;
43986;SDS011;29650;47.378;8.300;2023-04-06T06:28:42;10.82;;;5.60;;
43986;SDS011;29650;47.378;8.300;2023-04-06T06:31:09;8.40;;;5.88;;
43986;SDS011;29650;47.378;8.300;2023-04-06T06:33:37;8.25;;;4.97;;
43986;SDS011;29650;47.378;8.300;2023-04-06T06:36:05;11.53;;;5.93;;
43986;SDS011;29650;47.378;8.300;2023-04-06T06:38:32;10.00;;;5.22;;
43986;SDS011;29650;47.378;8.300;2023-04-06T06:40:59;11.15;;;5.78;;
43986;SDS011;29650;47.378;8.300;2023-04-06T06:43:26;8.18;;;5.40;;
43986;SDS011;29650;47.378;8.300;2023-04-06T06:45:53;14.25;;;6.80;;
43986;SDS011;29650;47.378;8.300;2023-04-06T06:48:20;10.63;;;5.30;;
43986;SDS011;29650;47.378;8.300;2023-04-06T06:50:48;8.65;;;5.97;;
43986;SDS011;29650;47.378;8.300;2023-04-06T06:53:15;9.07;;;5.33;;
43986;SDS011;29650;47.378;8.300;2023-04-06T06:55:42;8.50;;;6.22;;
43986;SDS011;29650;47.378;8.300;2023-04-06T06:58:10;13.38;;;6.05;;
43986;SDS011;29650;47.378;8.300;2023-04-06T07:00:37;9.38;;;5.68;;
43986;SDS011;29650;47.378;8.300;2023-04-06T07:03:04;15.20;;;6.35;;
43986;SDS011;29650;47.378;8.300;2023-04-06T07:05:31;11.48;;;6.32;;
43986;SDS011;29650;47.378;8.300;2023-04-06T07:08:00;10.15;;;6.30;;
43986;SDS011;29650;47.378;8.300;2023-04-06T07:10:27;10.07;;;5.63;;
43986;SDS011;29650;47.378;8.300;2023-04-06T07:12:54;13.25;;;5.90;;
43986;SDS011;29650;47.378;8.300;2023-04-06T07:15:21;8.38;;;5.30;;
43986;SDS011;29650;47.378;8.300;2023-04-06T07:17:48;10.82;;;6.20;;
43986;SDS011;29650;47.378;8.300;2023-04-06T07:20:15;14.52;;;6.95;;
43986;SDS011;29650;47.378;8.300;2023-04-06T07:22:43;10.13;;;5.40;;
43986;SDS011;29650;47.378;8.300;2023-04-06T07:25:12;14.30;;;5.90;;
43986;SDS011;29650;47.378;8.300;2023-04-06T07:27:39;9.80;;;5.82;;
43986;SDS011;29650;47.378;8.300;2023-04-06T07:30:06;7.13;;;4.88;;
43986;SDS011;29650;47.378;8.300;2023-04-06T07:32:34;9.25;;;5.72;;
43986;SDS011;29650;47.378;8.300;2023-04-06T07:35:01;10.20;;;6.40;;
43986;SDS011;29650;47.378;8.300;2023-04-06T07:37:28;9.80;;;5.80;;
43986;SDS011;29650;47.378;8.300;2023-04-06T07:39:55;11.38;;;6.05;;
43986;SDS011;29650;47.378;8.300;2023-04-06T07:42:23;8.90;;;5.18;;
43986;SDS011;29650;47.378;8.300;2023-04-06T07:44:50;9.50;;;6.20;;
43986;SDS011;29650;47.378;8.300;2023-04-06T07:47:17;7.32;;;4.95;;
43986;SDS011;29650;47.378;8.300;2023-04-06T07:49:44;13.40;;;5.78;;
43986;SDS011;29650;47.378;8.300;2023-04-06T07:52:11;10.02;;;5.28;;
43986;SDS011;29650;47.378;8.300;2023-04-06T07:54:38;13.40;;;6.22;;
43986;SDS011;29650;47.378;8.300;2023-04-06T07:57:06;10.90;;;5.65;;
43986;SDS011;29650;47.378;8.300;2023-04-06T07:59:34;12.57;;;5.25;;
43986;SDS011;29650;47.378;8.300;2023-04-06T08:02:01;9.45;;;5.78;;
43986;SDS011;29650;47.378;8.300;2023-04-06T08:04:28;9.45;;;5.03;;
43986;SDS011;29650;47.378;8.300;2023-04-06T08:06:55;11.05;;;6.00;;
43986;SDS011;29650;47.378;8.300;2023-04-06T08:09:22;10.30;;;6.00;;
43986;SDS011;29650;47.378;8.300;2023-04-06T08:11:49;8.40;;;5.10;;
43986;SDS011;29650;47.378;8.300;2023-04-06T08:14:16;9.63;;;5.03;;
43986;SDS011;29650;47.378;8.300;2023-04-06T08:16:45;9.90;;;6.00;;
43986;SDS011;29650;47.378;8.300;2023-04-06T08:19:12;12.60;;;6.20;;
43986;SDS011;29650;47.378;8.300;2023-04-06T08:21:42;9.68;;;5.60;;
43986;SDS011;29650;47.378;8.300;2023-04-06T08:24:09;9.52;;;5.65;;
43986;SDS011;29650;47.378;8.300;2023-04-06T08:26:36;9.32;;;5.20;;
43986;SDS011;29650;47.378;8.300;2023-04-06T08:29:03;10.98;;;5.38;;
43986;SDS011;29650;47.378;8.300;2023-04-06T08:34:00;11.27;;;5.55;;
43986;SDS011;29650;47.378;8.300;2023-04-06T08:36:28;10.38;;;5.60;;
43986;SDS011;29650;47.378;8.300;2023-04-06T08:38:55;8.50;;;5.22;;
43986;SDS011;29650;47.378;8.300;2023-04-06T08:41:23;11.23;;;5.35;;
43986;SDS011;29650;47.378;8.300;2023-04-06T08:43:51;8.35;;;5.22;;
43986;SDS011;29650;47.378;8.300;2023-04-06T08:46:22;9.65;;;4.80;;
43986;SDS011;29650;47.378;8.300;2023-04-06T08:48:54;10.20;;;5.50;;
43986;SDS011;29650;47.378;8.300;2023-04-06T08:51:23;9.48;;;5.15;;
43986;SDS011;29650;47.378;8.300;2023-04-06T08:53:51;10.27;;;5.10;;
43986;SDS011;29650;47.378;8.300;2023-04-06T08:58:47;10.15;;;5.55;;
43986;SDS011;29650;47.378;8.300;2023-04-06T09:01:16;10.85;;;5.25;;
43986;SDS011;29650;47.378;8.300;2023-04-06T09:03:46;8.82;;;4.55;;
43986;SDS011;29650;47.378;8.300;2023-04-06T09:06:16;8.50;;;4.90;;
43986;SDS011;29650;47.378;8.300;2023-04-06T09:08:44;7.35;;;4.57;;
43986;SDS011;29650;47.378;8.300;2023-04-06T09:11:11;8.00;;;5.32;;
43986;SDS011;29650;47.378;8.300;2023-04-06T09:13:44;7.72;;;4.85;;
43986;SDS011;29650;47.378;8.300;2023-04-06T09:16:12;10.05;;;5.50;;
43986;SDS011;29650;47.378;8.300;2023-04-06T09:18:39;14.95;;;4.70;;
43986;SDS011;29650;47.378;8.300;2023-04-06T09:21:06;6.72;;;4.68;;
43986;SDS011;29650;47.378;8.300;2023-04-06T09:23:34;8.05;;;5.28;;
43986;SDS011;29650;47.378;8.300;2023-04-06T09:26:09;7.22;;;4.68;;
43986;SDS011;29650;47.378;8.300;2023-04-06T09:28:44;10.77;;;5.47;;
43986;SDS011;29650;47.378;8.300;2023-04-06T09:31:13;7.22;;;4.90;;
43986;SDS011;29650;47.378;8.300;2023-04-06T09:33:41;8.52;;;5.10;;
43986;SDS011;29650;47.378;8.300;2023-04-06T09:36:09;6.93;;;4.78;;
43986;SDS011;29650;47.378;8.300;2023-04-06T09:38:36;7.53;;;4.75;;
43986;SDS011;29650;47.378;8.300;2023-04-06T09:41:04;6.93;;;4.55;;
43986;SDS011;29650;47.378;8.300;2023-04-06T09:43:32;11.13;;;4.53;;
43986;SDS011;29650;47.378;8.300;2023-04-06T09:46:00;10.15;;;4.43;;
43986;SDS011;29650;47.378;8.300;2023-04-06T09:48:29;8.02;;;3.85;;
43986;SDS011;29650;47.378;8.300;2023-04-06T09:51:03;9.35;;;4.40;;
43986;SDS011;29650;47.378;8.300;2023-04-06T09:53:32;6.93;;;4.22;;
43986;SDS011;29650;47.378;8.300;2023-04-06T09:56:03;6.55;;;3.88;;
43986;SDS011;29650;47.378;8.300;2023-04-06T09:58:36;8.98;;;4.50;;
43986;SDS011;29650;47.378;8.300;2023-04-06T10:01:07;7.85;;;4.50;;
43986;SDS011;29650;47.378;8.300;2023-04-06T10:03:38;10.13;;;4.63;;
43986;SDS011;29650;47.378;8.300;2023-04-06T10:06:11;7.25;;;4.07;;
43986;SDS011;29650;47.378;8.300;2023-04-06T10:08:41;8.70;;;3.42;;
43986;SDS011;29650;47.378;8.300;2023-04-06T10:11:11;5.35;;;3.00;;
43986;SDS011;29650;47.378;8.300;2023-04-06T10:13:40;7.75;;;3.50;;
43986;SDS011;29650;47.378;8.300;2023-04-06T10:16:09;6.63;;;3.40;;
43986;SDS011;29650;47.378;8.300;2023-04-06T10:18:36;6.72;;;3.08;;
43986;SDS011;29650;47.378;8.300;2023-04-06T10:21:06;7.60;;;3.10;;
43986;SDS011;29650;47.378;8.300;2023-04-06T10:23:36;7.88;;;3.15;;
43986;SDS011;29650;47.378;8.300;2023-04-06T10:26:12;9.63;;;3.80;;
43986;SDS011;29650;47.378;8.300;2023-04-06T10:28:43;5.32;;;3.28;;
43986;SDS011;29650;47.378;8.300;2023-04-06T10:31:11;5.95;;;3.00;;
43986;SDS011;29650;47.378;8.300;2023-04-06T10:33:38;7.25;;;3.88;;
43986;SDS011;29650;47.378;8.300;2023-04-06T10:36:12;6.38;;;3.60;;
43986;SDS011;29650;47.378;8.300;2023-04-06T10:38:40;6.40;;;4.20;;
43986;SDS011;29650;47.378;8.300;2023-04-06T10:41:07;5.13;;;3.40;;
43986;SDS011;29650;47.378;8.300;2023-04-06T10:43:36;6.13;;;2.97;;
43986;SDS011;29650;47.378;8.300;2023-04-06T10:46:05;13.82;;;4.00;;
43986;SDS011;29650;47.378;8.300;2023-04-06T10:48:37;5.28;;;3.45;;
43986;SDS011;29650;47.378;8.300;2023-04-06T10:51:07;5.45;;;3.25;;
43986;SDS011;29650;47.378;8.300;2023-04-06T10:53:35;6.15;;;3.22;;
43986;SDS011;29650;47.378;8.300;2023-04-06T10:56:02;6.28;;;3.50;;
43986;SDS011;29650;47.378;8.300;2023-04-06T10:58:35;4.68;;;2.90;;
43986;SDS011;29650;47.378;8.300;2023-04-06T11:01:02;7.32;;;3.17;;
43986;SDS011;29650;47.378;8.300;2023-04-06T11:03:31;6.88;;;3.90;;
43986;SDS011;29650;47.378;8.300;2023-04-06T11:05:59;5.85;;;3.30;;
43986;SDS011;29650;47.378;8.300;2023-04-06T11:08:27;7.15;;;3.15;;
43986;SDS011;29650;47.378;8.300;2023-04-06T11:11:04;6.85;;;3.00;;
43986;SDS011;29650;47.378;8.300;2023-04-06T11:13:39;5.25;;;3.30;;
43986;SDS011;29650;47.378;8.300;2023-04-06T11:16:13;7.80;;;3.33;;
43986;SDS011;29650;47.378;8.300;2023-04-06T11:18:50;6.85;;;3.25;;
43986;SDS011;29650;47.378;8.300;2023-04-06T11:21:19;5.35;;;3.25;;
43986;SDS011;29650;47.378;8.300;2023-04-06T11:24:05;5.57;;;3.50;;
43986;SDS011;29650;47.378;8.300;2023-04-06T11:26:36;7.43;;;3.33;;
43986;SDS011;29650;47.378;8.300;2023-04-06T11:29:04;8.88;;;3.13;;
43986;SDS011;29650;47.378;8.300;2023-04-06T11:31:33;6.45;;;3.42;;
43986;SDS011;29650;47.378;8.300;2023-04-06T11:34:08;6.50;;;3.70;;
43986;SDS011;29650;47.378;8.300;2023-04-06T11:36:36;5.70;;;3.20;;
43986;SDS011;29650;47.378;8.300;2023-04-06T11:39:06;4.45;;;2.70;;
43986;SDS011;29650;47.378;8.300;2023-04-06T11:41:34;8.20;;;3.53;;
43986;SDS011;29650;47.378;8.300;2023-04-06T11:44:01;4.93;;;3.13;;
43986;SDS011;29650;47.378;8.300;2023-04-06T11:46:28;4.20;;;2.38;;
43986;SDS011;29650;47.378;8.300;2023-04-06T11:48:59;5.47;;;2.70;;
43986;SDS011;29650;47.378;8.300;2023-04-06T11:51:27;7.05;;;3.50;;
43986;SDS011;29650;47.378;8.300;2023-04-06T11:53:54;7.38;;;3.08;;
43986;SDS011;29650;47.378;8.300;2023-04-06T11:56:28;5.90;;;2.97;;
43986;SDS011;29650;47.378;8.300;2023-04-06T11:58:56;15.77;;;3.08;;
43986;SDS011;29650;47.378;8.300;2023-04-06T12:01:24;5.28;;;2.72;;
43986;SDS011;29650;47.378;8.300;2023-04-06T12:03:52;5.65;;;3.25;;
43986;SDS011;29650;47.378;8.300;2023-04-06T12:06:20;5.97;;;3.17;;
43986;SDS011;29650;47.378;8.300;2023-04-06T12:08:47;5.82;;;2.90;;
43986;SDS011;29650;47.378;8.300;2023-04-06T12:11:14;4.68;;;3.13;;
43986;SDS011;29650;47.378;8.300;2023-04-06T12:13:41;6.35;;;3.00;;
43986;SDS011;29650;47.378;8.300;2023-04-06T12:16:08;4.43;;;2.58;;
43986;SDS011;29650;47.378;8.300;2023-04-06T12:18:35;6.05;;;3.30;;
43986;SDS011;29650;47.378;8.300;2023-04-06T12:21:02;5.07;;;2.95;;
43986;SDS011;29650;47.378;8.300;2023-04-06T12:23:31;5.93;;;2.72;;
43986;SDS011;29650;47.378;8.300;2023-04-06T12:25:58;6.75;;;3.08;;
43986;SDS011;29650;47.378;8.300;2023-04-06T12:28:26;3.60;;;2.15;;
43986;SDS011;29650;47.378;8.300;2023-04-06T12:30:54;3.92;;;2.40;;
43986;SDS011;29650;47.378;8.300;2023-04-06T12:33:21;7.50;;;3.17;;
43986;SDS011;29650;47.378;8.300;2023-04-06T12:35:48;6.18;;;3.15;;
43986;SDS011;29650;47.378;8.300;2023-04-06T12:38:15;5.75;;;2.97;;
43986;SDS011;29650;47.378;8.300;2023-04-06T12:40:44;4.07;;;2.92;;
43986;SDS011;29650;47.378;8.300;2023-04-06T12:43:11;4.47;;;3.15;;
43986;SDS011;29650;47.378;8.300;2023-04-06T12:45:38;5.28;;;2.58;;
43986;SDS011;29650;47.378;8.300;2023-04-06T12:48:06;4.47;;;2.80;;
43986;SDS011;29650;47.378;8.300;2023-04-06T12:50:33;4.88;;;2.70;;
43986;SDS011;29650;47.378;8.300;2023-04-06T12:53:00;5.30;;;2.90;;
43986;SDS011;29650;47.378;8.300;2023-04-06T12:55:29;4.10;;;2.60;;
43986;SDS011;29650;47.378;8.300;2023-04-06T12:58:00;6.07;;;2.97;;
43986;SDS011;29650;47.378;8.300;2023-04-06T13:00:28;7.57;;;3.75;;
43986;SDS011;29650;47.378;8.300;2023-04-06T13:02:55;5.43;;;2.80;;
43986;SDS011;29650;47.378;8.300;2023-04-06T13:05:22;8.77;;;2.50;;
43986;SDS011;29650;47.378;8.300;2023-04-06T13:07:49;6.97;;;2.60;;
43986;SDS011;29650;47.378;8.300;2023-04-06T13:10:16;4.97;;;2.70;;
43986;SDS011;29650;47.378;8.300;2023-04-06T13:12:43;8.50;;;2.95;;
43986;SDS011;29650;47.378;8.300;2023-04-06T13:15:12;4.22;;;2.67;;
43986;SDS011;29650;47.378;8.300;2023-04-06T13:17:39;6.23;;;2.87;;
43986;SDS011;29650;47.378;8.300;2023-04-06T13:20:06;4.53;;;3.00;;
43986;SDS011;29650;47.378;8.300;2023-04-06T13:22:34;4.07;;;2.58;;
43986;SDS011;29650;47.378;8.300;2023-04-06T13:25:01;5.22;;;2.95;;
43986;SDS011;29650;47.378;8.300;2023-04-06T13:27:28;6.55;;;3.08;;
43986;SDS011;29650;47.378;8.300;2023-04-06T13:29:58;6.57;;;3.00;;
43986;SDS011;29650;47.378;8.300;2023-04-06T13:32:27;6.00;;;2.90;;
43986;SDS011;29650;47.378;8.300;2023-04-06T13:34:55;4.63;;;2.60;;
43986;SDS011;29650;47.378;8.300;2023-04-06T13:37:22;3.60;;;2.65;;
43986;SDS011;29650;47.378;8.300;2023-04-06T13:39:49;6.97;;;3.22;;
43986;SDS011;29650;47.378;8.300;2023-04-06T13:42:16;5.35;;;2.60;;
43986;SDS011;29650;47.378;8.300;2023-04-06T13:44:43;6.57;;;3.20;;
43986;SDS011;29650;47.378;8.300;2023-04-06T13:47:11;4.93;;;2.65;;
43986;SDS011;29650;47.378;8.300;2023-04-06T13:49:41;5.80;;;2.80;;
43986;SDS011;29650;47.378;8.300;2023-04-06T13:52:08;3.22;;;2.28;;
43986;SDS011;29650;47.378;8.300;2023-04-06T13:54:36;4.70;;;2.60;;
43986;SDS011;29650;47.378;8.300;2023-04-06T13:57:03;5.20;;;3.28;;
43986;SDS011;29650;47.378;8.300;2023-04-06T13:59:33;4.40;;;2.60;;
43986;SDS011;29650;47.378;8.300;2023-04-06T14:02:00;4.35;;;2.35;;
43986;SDS011;29650;47.378;8.300;2023-04-06T14:04:28;4.35;;;2.65;;
43986;SDS011;29650;47.378;8.300;2023-04-06T14:06:56;4.60;;;2.17;;
43986;SDS011;29650;47.378;8.300;2023-04-06T14:09:23;4.20;;;3.00;;
43986;SDS011;29650;47.378;8.300;2023-04-06T14:11:50;4.18;;;2.50;;
43986;SDS011;29650;47.378;8.300;2023-04-06T14:14:17;4.35;;;2.80;;
43986;SDS011;29650;47.378;8.300;2023-04-06T14:16:45;4.10;;;2.20;;
43986;SDS011;29650;47.378;8.300;2023-04-06T14:19:12;4.32;;;2.65;;
43986;SDS011;29650;47.378;8.300;2023-04-06T14:21:42;5.63;;;2.75;;
43986;SDS011;29650;47.378;8.300;2023-04-06T14:24:11;4.95;;;3.10;;
43986;SDS011;29650;47.378;8.300;2023-04-06T14:26:38;6.85;;;3.33;;
43986;SDS011;29650;47.378;8.300;2023-04-06T14:29:06;6.03;;;2.78;;
43986;SDS011;29650;47.378;8.300;2023-04-06T14:31:34;3.83;;;2.60;;
43986;SDS011;29650;47.378;8.300;2023-04-06T14:34:02;4.72;;;2.40;;
43986;SDS011;29650;47.378;8.300;2023-04-06T14:36:30;5.10;;;2.42;;
43986;SDS011;29650;47.378;8.300;2023-04-06T14:39:01;4.05;;;2.30;;
43986;SDS011;29650;47.378;8.300;2023-04-06T14:41:31;6.05;;;2.53;;
43986;SDS011;29650;47.378;8.300;2023-04-06T14:43:58;3.33;;;2.53;;
43986;SDS011;29650;47.378;8.300;2023-04-06T14:46:25;5.30;;;2.58;;
43986;SDS011;29650;47.378;8.300;2023-04-06T14:48:54;4.78;;;2.78;;
43986;SDS011;29650;47.378;8.300;2023-04-06T14:51:21;7.20;;;2.90;;